Sikania — D5KI7 — position and weather

sailwx.info

Track history (hours):
 
Tides and Currents Weather Stations Pressure Air Temp Water Temp Dewpoint Dewpoint Depression Visibility Wind Speed Wind Dir Waves Ship Positions

Sikania

Last reported at 2017-Nov-12 11:22 UTC. Time now 2017-Nov-24 20:45 UTC.
Position N 28°19' W 016°02'.
Warning: this ship's position is 12 days out of date.

Length 190 m; draft 12.1 m.

Type: Cargo ship. MMSI: 636017321.

Date/timePositionNaut miles runAvg speedWind from/ knotsBaromVisibWave heightAir tempDewpointWater temp
2017-Nov-12 11:22N 28°19' W 016°02'412.7
2017-Nov-12 11:01N 28°23' W 015°59'612.4
2017-Nov-12 10:30N 28°27' W 015°54'612.3
2017-Nov-12 10:00N 28°32' W 015°50'612.4
2017-Nov-12 09:30N 28°37' W 015°45'612.4
2017-Nov-12 09:00N 28°43' W 015°43'612.3
2017-Nov-12 08:31N 28°49' W 015°42'712.3
2017-Nov-12 07:57N 28°55' W 015°40'612.3
2017-Nov-12 07:30N 29°01' W 015°38'612.4
2017-Nov-12 06:59N 29°07' W 015°36'612.5
2017-Nov-12 06:30N 29°12' W 015°34'612.4
2017-Nov-12 06:00N 29°18' W 015°33'612.3
2017-Nov-12 05:30N 29°24' W 015°31'612.2
2017-Nov-12 05:00N 29°30' W 015°29'612.4
2017-Nov-12 04:30N 29°36' W 015°28'612.5
2017-Nov-12 04:00N 29°42' W 015°26'612.4
2017-Nov-12 03:30N 29°48' W 015°24'912.5
2017-Nov-12 02:48N 29°57' W 015°21'512.5
2017-Nov-12 02:25N 30°02' W 015°20'512.5
2017-Nov-12 02:00N 30°06' W 015°18'612.4
2017-Nov-12 01:30N 30°13' W 015°16'712.5
2017-Nov-12 00:57N 30°19' W 015°14'612.4
2017-Nov-12 00:28N 30°25' W 015°12'612.4
2017-Nov-12 00:01N 30°30' W 015°11'612.4
2017-Nov-11 23:29N 30°37' W 015°09'612.4
2017-Nov-11 23:00N 30°43' W 015°07'612.1
2017-Nov-11 22:30N 30°48' W 015°05'612.1
2017-Nov-11 21:59N 30°54' W 015°03'612.0
2017-Nov-11 21:30N 31°00' W 015°02'612.0
2017-Nov-11 20:59N 31°06' W 014°60'712.3
2017-Nov-11 20:25N 31°13' W 014°58'612.6
2017-Nov-11 19:59N 31°18' W 014°56'1012.3
2017-Nov-11 19:12N 31°27' W 014°53'211.9
2017-Nov-11 19:00N 31°30' W 014°52'611.9
2017-Nov-11 18:31N 31°35' W 014°51'  
2017-Nov-07 08:03N 49°48' W 003°36'0 9.0
2017-Nov-07 08:00N 49°48' W 003°36'5 9.0
2017-Nov-07 07:25N 49°50' W 003°28'4 9.2
2017-Nov-07 06:58N 49°52' W 003°22'4 9.4
2017-Nov-07 06:30N 49°53' W 003°16'6 9.9
2017-Nov-07 05:56N 49°55' W 003°08'510.7
2017-Nov-07 05:30N 49°57' W 003°01'611.7
2017-Nov-07 05:00N 49°59' W 002°52'612.7
2017-Nov-07 04:30N 50°00' W 002°43'713.7
2017-Nov-07 04:00N 50°02' W 002°33'2014.8
2017-Nov-07 02:40N 50°08' W 002°03'714.9
2017-Nov-07 02:13N 50°10' W 001°53'314.2
2017-Nov-07 02:01N 50°10' W 001°48'713.6
2017-Nov-07 01:30N 50°12' W 001°38'612.7
2017-Nov-07 01:00N 50°14' W 001°28'611.7
2017-Nov-07 00:29N 50°16' W 001°19'38 9.0
2017-Nov-06 20:15N 50°26' W 000°22'49111.3
2017-Nov-05 00:39N 56°57' E 007°59'211.0
2017-Nov-05 00:29N 56°59' E 008°01'510.9
2017-Nov-05 00:00N 57°03' E 008°06'610.5
2017-Nov-04 23:29N 57°08' E 008°12'510.4
2017-Nov-04 23:00N 57°12' E 008°17'8010.4
2017-Nov-04 15:21N 57°47' E 010°30'410.5
2017-Nov-04 15:00N 57°47' E 010°37'510.4
2017-Nov-04 14:30N 57°46' E 010°47'5 9.1
2017-Nov-04 14:00N 57°42' E 010°45'2 1.8
2017-Nov-04 13:10N 57°41' E 010°43'0 0.0
2017-Nov-04 12:58N 57°41' E 010°43'0 0.0
2017-Nov-04 12:22N 57°41' E 010°43'0 0.0
2017-Nov-04 11:58N 57°41' E 010°43'0 0.0
2017-Nov-04 11:13N 57°41' E 010°43'0 0.0
2017-Nov-04 10:46N 57°41' E 010°43'0 0.0
2017-Nov-04 10:16N 57°41' E 010°43'0 0.1
2017-Nov-04 09:52N 57°41' E 010°43'0 0.4
2017-Nov-04 09:30N 57°41' E 010°43'2 4.0
2017-Nov-04 09:00N 57°41' E 010°46'510.1
2017-Nov-04 08:30N 57°40' E 010°56'611.0
2017-Nov-04 08:00N 57°38' E 011°05'612.0
2017-Nov-04 07:30N 57°34' E 011°13'611.8
2017-Nov-04 07:00N 57°30' E 011°22'611.6
2017-Nov-04 06:30N 57°25' E 011°28'611.7
2017-Nov-04 06:00N 57°20' E 011°31'611.5
2017-Nov-04 05:30N 57°14' E 011°35'611.5
2017-Nov-04 05:00N 57°09' E 011°38'611.5
2017-Nov-04 04:29N 57°03' E 011°42'711.6
2017-Nov-04 03:53N 56°57' E 011°46'10310.5
2017-Nov-03 18:05N 55°16' E 011°04'311.9
2017-Nov-03 17:53N 55°14' E 011°06'410.2
2017-Nov-03 17:27N 55°10' E 011°01'510.9
2017-Nov-03 17:00N 55°06' E 010°60'611.0
2017-Nov-03 16:30N 55°00' E 010°59'510.9
2017-Nov-03 16:00N 54°56' E 010°53'611.2
2017-Nov-03 15:30N 54°50' E 010°50'611.1
2017-Nov-03 15:00N 54°45' E 010°48'4 8.9
2017-Nov-03 14:31N 54°41' E 010°47'510.3
2017-Nov-03 14:00N 54°38' E 010°54'510.9
2017-Nov-03 13:30N 54°36' E 011°03'510.9
2017-Nov-03 13:00N 54°35' E 011°12'611.1
2017-Nov-03 12:30N 54°33' E 011°21'611.5
2017-Nov-03 12:00N 54°31' E 011°30'611.5
2017-Nov-03 11:30N 54°28' E 011°39'611.5
2017-Nov-03 11:00N 54°26' E 011°48'611.5
2017-Nov-03 10:30N 54°26' E 011°58'611.3
2017-Nov-03 10:01N 54°27' E 012°08'7111.3
2017-Nov-03 03:43N 55°03' E 013°54'512.3
2017-Nov-03 03:17N 55°05' E 014°02'612.2
2017-Nov-03 02:46N 55°09' E 014°11'312.8
2017-Nov-03 02:30N 55°12' E 014°14'713.1
2017-Nov-03 01:59N 55°17' E 014°22'612.9
2017-Nov-03 01:29N 55°22' E 014°29'612.6
2017-Nov-03 00:58N 55°26' E 014°37'712.7
2017-Nov-03 00:28N 55°29' E 014°48'712.9
2017-Nov-02 23:56N 55°32' E 014°59'613.0
2017-Nov-02 23:28N 55°34' E 015°08'613.0
2017-Nov-02 23:00N 55°37' E 015°18'612.9
2017-Nov-02 22:30N 55°39' E 015°29'612.7
2017-Nov-02 22:00N 55°41' E 015°39'612.8
2017-Nov-02 21:30N 55°42' E 015°50'612.9
2017-Nov-02 21:00N 55°44' E 016°02'612.5
2017-Nov-02 20:30N 55°45' E 016°12'612.5
2017-Nov-02 20:00N 55°47' E 016°23'612.7
2017-Nov-02 19:30N 55°48' E 016°34'612.7
2017-Nov-02 19:00N 55°50' E 016°45'  
Track history (hours):
 
Tides and Currents Weather Stations Pressure Air Temp Water Temp Dewpoint Dewpoint Depression Visibility Wind Speed Wind Dir Waves Ship Positions

Sikania

Last reported at 2017-Nov-12 11:22 UTC. Time now 2017-Nov-24 20:45 UTC.
Position N 28°19' W 016°02'.
Warning: this ship's position is 12 days out of date.

Length 190 m; draft 12.1 m.

Type: Cargo ship. MMSI: 636017321.

Date/timePositionNaut miles runAvg speedWind from/ knotsBaromVisibWave heightAir tempDewpointWater temp
2017-Nov-12 11:22N 28°19' W 016°02'412.7
2017-Nov-12 11:01N 28°23' W 015°59'612.4
2017-Nov-12 10:30N 28°27' W 015°54'612.3
2017-Nov-12 10:00N 28°32' W 015°50'612.4
2017-Nov-12 09:30N 28°37' W 015°45'612.4
2017-Nov-12 09:00N 28°43' W 015°43'612.3
2017-Nov-12 08:31N 28°49' W 015°42'712.3
2017-Nov-12 07:57N 28°55' W 015°40'612.3
2017-Nov-12 07:30N 29°01' W 015°38'612.4
2017-Nov-12 06:59N 29°07' W 015°36'612.5
2017-Nov-12 06:30N 29°12' W 015°34'612.4
2017-Nov-12 06:00N 29°18' W 015°33'612.3
2017-Nov-12 05:30N 29°24' W 015°31'612.2
2017-Nov-12 05:00N 29°30' W 015°29'612.4
2017-Nov-12 04:30N 29°36' W 015°28'612.5
2017-Nov-12 04:00N 29°42' W 015°26'612.4
2017-Nov-12 03:30N 29°48' W 015°24'912.5
2017-Nov-12 02:48N 29°57' W 015°21'512.5
2017-Nov-12 02:25N 30°02' W 015°20'512.5
2017-Nov-12 02:00N 30°06' W 015°18'612.4
2017-Nov-12 01:30N 30°13' W 015°16'712.5
2017-Nov-12 00:57N 30°19' W 015°14'612.4
2017-Nov-12 00:28N 30°25' W 015°12'612.4
2017-Nov-12 00:01N 30°30' W 015°11'612.4
2017-Nov-11 23:29N 30°37' W 015°09'612.4
2017-Nov-11 23:00N 30°43' W 015°07'612.1
2017-Nov-11 22:30N 30°48' W 015°05'612.1
2017-Nov-11 21:59N 30°54' W 015°03'612.0
2017-Nov-11 21:30N 31°00' W 015°02'612.0
2017-Nov-11 20:59N 31°06' W 014°60'712.3
2017-Nov-11 20:25N 31°13' W 014°58'612.6
2017-Nov-11 19:59N 31°18' W 014°56'1012.3
2017-Nov-11 19:12N 31°27' W 014°53'211.9
2017-Nov-11 19:00N 31°30' W 014°52'611.9
2017-Nov-11 18:31N 31°35' W 014°51'  
2017-Nov-07 08:03N 49°48' W 003°36'0 9.0
2017-Nov-07 08:00N 49°48' W 003°36'5 9.0
2017-Nov-07 07:25N 49°50' W 003°28'4 9.2
2017-Nov-07 06:58N 49°52' W 003°22'4 9.4
2017-Nov-07 06:30N 49°53' W 003°16'6 9.9
2017-Nov-07 05:56N 49°55' W 003°08'510.7
2017-Nov-07 05:30N 49°57' W 003°01'611.7
2017-Nov-07 05:00N 49°59' W 002°52'612.7
2017-Nov-07 04:30N 50°00' W 002°43'713.7
2017-Nov-07 04:00N 50°02' W 002°33'2014.8
2017-Nov-07 02:40N 50°08' W 002°03'714.9
2017-Nov-07 02:13N 50°10' W 001°53'314.2
2017-Nov-07 02:01N 50°10' W 001°48'713.6
2017-Nov-07 01:30N 50°12' W 001°38'612.7
2017-Nov-07 01:00N 50°14' W 001°28'611.7
2017-Nov-07 00:29N 50°16' W 001°19'38 9.0
2017-Nov-06 20:15N 50°26' W 000°22'49111.3
2017-Nov-05 00:39N 56°57' E 007°59'211.0
2017-Nov-05 00:29N 56°59' E 008°01'510.9
2017-Nov-05 00:00N 57°03' E 008°06'610.5
2017-Nov-04 23:29N 57°08' E 008°12'510.4
2017-Nov-04 23:00N 57°12' E 008°17'8010.4
2017-Nov-04 15:21N 57°47' E 010°30'410.5
2017-Nov-04 15:00N 57°47' E 010°37'510.4
2017-Nov-04 14:30N 57°46' E 010°47'5 9.1
2017-Nov-04 14:00N 57°42' E 010°45'2 1.8
2017-Nov-04 13:10N 57°41' E 010°43'0 0.0
2017-Nov-04 12:58N 57°41' E 010°43'0 0.0
2017-Nov-04 12:22N 57°41' E 010°43'0 0.0
2017-Nov-04 11:58N 57°41' E 010°43'0 0.0
2017-Nov-04 11:13N 57°41' E 010°43'0 0.0
2017-Nov-04 10:46N 57°41' E 010°43'0 0.0
2017-Nov-04 10:16N 57°41' E 010°43'0 0.1
2017-Nov-04 09:52N 57°41' E 010°43'0 0.4
2017-Nov-04 09:30N 57°41' E 010°43'2 4.0
2017-Nov-04 09:00N 57°41' E 010°46'510.1
2017-Nov-04 08:30N 57°40' E 010°56'611.0
2017-Nov-04 08:00N 57°38' E 011°05'612.0
2017-Nov-04 07:30N 57°34' E 011°13'611.8
2017-Nov-04 07:00N 57°30' E 011°22'611.6
2017-Nov-04 06:30N 57°25' E 011°28'611.7
2017-Nov-04 06:00N 57°20' E 011°31'611.5
2017-Nov-04 05:30N 57°14' E 011°35'611.5
2017-Nov-04 05:00N 57°09' E 011°38'611.5
2017-Nov-04 04:29N 57°03' E 011°42'711.6
2017-Nov-04 03:53N 56°57' E 011°46'10310.5
2017-Nov-03 18:05N 55°16' E 011°04'311.9
2017-Nov-03 17:53N 55°14' E 011°06'410.2
2017-Nov-03 17:27N 55°10' E 011°01'510.9
2017-Nov-03 17:00N 55°06' E 010°60'611.0
2017-Nov-03 16:30N 55°00' E 010°59'510.9
2017-Nov-03 16:00N 54°56' E 010°53'611.2
2017-Nov-03 15:30N 54°50' E 010°50'611.1
2017-Nov-03 15:00N 54°45' E 010°48'4 8.9
2017-Nov-03 14:31N 54°41' E 010°47'510.3
2017-Nov-03 14:00N 54°38' E 010°54'510.9
2017-Nov-03 13:30N 54°36' E 011°03'510.9
2017-Nov-03 13:00N 54°35' E 011°12'611.1
2017-Nov-03 12:30N 54°33' E 011°21'611.5
2017-Nov-03 12:00N 54°31' E 011°30'611.5
2017-Nov-03 11:30N 54°28' E 011°39'611.5
2017-Nov-03 11:00N 54°26' E 011°48'611.5
2017-Nov-03 10:30N 54°26' E 011°58'611.3
2017-Nov-03 10:01N 54°27' E 012°08'7111.3
2017-Nov-03 03:43N 55°03' E 013°54'512.3
2017-Nov-03 03:17N 55°05' E 014°02'612.2
2017-Nov-03 02:46N 55°09' E 014°11'312.8
2017-Nov-03 02:30N 55°12' E 014°14'713.1
2017-Nov-03 01:59N 55°17' E 014°22'612.9
2017-Nov-03 01:29N 55°22' E 014°29'612.6
2017-Nov-03 00:58N 55°26' E 014°37'712.7
2017-Nov-03 00:28N 55°29' E 014°48'712.9
2017-Nov-02 23:56N 55°32' E 014°59'613.0
2017-Nov-02 23:28N 55°34' E 015°08'613.0
2017-Nov-02 23:00N 55°37' E 015°18'612.9
2017-Nov-02 22:30N 55°39' E 015°29'612.7
2017-Nov-02 22:00N 55°41' E 015°39'612.8
2017-Nov-02 21:30N 55°42' E 015°50'612.9
2017-Nov-02 21:00N 55°44' E 016°02'612.5
2017-Nov-02 20:30N 55°45' E 016°12'612.5
2017-Nov-02 20:00N 55°47' E 016°23'612.7
2017-Nov-02 19:30N 55°48' E 016°34'612.7
2017-Nov-02 19:00N 55°50' E 016°45'  

Dump ship's entire track history